Time;durP1;ratioP1;P1;durP2;ratioP2;P2;SDS_P1;SDS_P2;PMS_P1;PMS_P2;Temp;Humidity;BMP_temperature;BMP_pressure;BME280_temperature;BME280_humidity;BME280_pressure;Samples;Min_cycle;Max_cycle;Signal;HPM_P1;HPM_P2
2022/06/19 00:00:36;;;;;;;11.90;6.75;;;13.80;99.90;;;;;;5057794;28;20068;-71
2022/06/19 00:03:07;;;;;;;8.20;6.45;;;13.70;99.90;;;;;;5075593;28;20093;-71
2022/06/19 00:05:34;;;;;;;9.38;6.75;;;13.60;99.90;;;;;;5049874;28;20078;-71
2022/06/19 00:08:01;;;;;;;7.80;5.95;;;13.60;99.90;;;;;;5053690;28;20098;-71
2022/06/19 00:10:29;;;;;;;8.57;6.65;;;13.70;99.90;;;;;;5082567;28;20052;-71
2022/06/19 00:12:57;;;;;;;8.25;6.65;;;13.60;99.90;;;;;;5074715;28;20060;-72
2022/06/19 00:15:25;;;;;;;9.38;6.70;;;13.60;99.90;;;;;;5075362;28;20714;-72
2022/06/19 00:17:52;;;;;;;10.35;6.72;;;13.60;99.90;;;;;;5082431;28;20052;-73
2022/06/19 00:20:19;;;;;;;8.13;7.15;;;13.60;99.90;;;;;;5075253;28;20094;-73
2022/06/19 00:22:47;;;;;;;8.05;6.60;;;13.50;99.90;;;;;;5075005;28;20518;-72
2022/06/19 00:25:14;;;;;;;10.30;7.68;;;13.50;99.90;;;;;;5052741;28;20055;-73
2022/06/19 00:27:41;;;;;;;11.80;7.55;;;13.50;99.90;;;;;;5064731;28;20049;-73
2022/06/19 00:30:13;;;;;;;8.77;7.72;;;13.40;99.90;;;;;;5076180;28;20071;-71
2022/06/19 00:32:40;;;;;;;11.27;7.90;;;13.40;99.90;;;;;;5075092;28;20041;-71
2022/06/19 00:35:08;;;;;;;10.00;7.38;;;13.30;99.90;;;;;;5075512;28;20075;-71
2022/06/19 00:37:35;;;;;;;8.77;7.03;;;13.30;99.90;;;;;;5074526;28;20071;-71
2022/06/19 00:40:04;;;;;;;8.35;7.07;;;13.30;99.90;;;;;;5075058;28;20071;-73
2022/06/19 00:42:32;;;;;;;10.93;6.75;;;13.40;99.90;;;;;;5056980;28;20055;-72
2022/06/19 00:44:59;;;;;;;10.40;7.45;;;13.30;99.90;;;;;;5057692;28;20044;-72
2022/06/19 00:47:33;;;;;;;9.43;7.10;;;13.20;99.90;;;;;;5074909;28;20127;-72
2022/06/19 00:50:04;;;;;;;9.23;7.00;;;13.10;99.90;;;;;;5044820;28;20093;-72
2022/06/19 00:52:35;;;;;;;7.85;6.72;;;13.10;99.90;;;;;;5055256;28;20045;-73
2022/06/19 00:55:07;;;;;;;12.63;7.50;;;13.10;99.90;;;;;;5073836;28;20040;-73
2022/06/19 00:57:38;;;;;;;10.45;7.43;;;13.10;99.90;;;;;;5066637;28;20036;-73
2022/06/19 01:00:10;;;;;;;11.68;7.25;;;13.10;99.90;;;;;;5053572;28;20135;-74
2022/06/19 01:02:41;;;;;;;8.50;6.57;;;13.10;99.90;;;;;;5054087;28;20033;-71
2022/06/19 01:05:11;;;;;;;9.98;6.97;;;13.10;99.90;;;;;;5054600;28;20072;-71
2022/06/19 01:07:40;;;;;;;11.52;6.75;;;13.20;99.90;;;;;;5053200;28;20045;-72
2022/06/19 01:10:08;;;;;;;11.40;7.15;;;13.10;99.90;;;;;;5054294;28;20041;-72
2022/06/19 01:12:36;;;;;;;17.67;11.45;;;13.10;99.90;;;;;;5054208;28;20083;-73
2022/06/19 01:15:07;;;;;;;15.68;10.90;;;13.00;99.90;;;;;;5054323;28;20127;-73
2022/06/19 01:17:35;;;;;;;11.35;8.48;;;13.00;99.90;;;;;;5054437;28;20049;-71
2022/06/19 01:20:08;;;;;;;27.65;18.83;;;13.00;99.90;;;;;;5054209;28;20195;-72
2022/06/19 01:22:44;;;;;;;10.85;7.40;;;12.90;99.90;;;;;;5053668;28;20041;-72
2022/06/19 01:25:16;;;;;;;8.32;6.95;;;12.90;99.90;;;;;;5053976;28;20496;-73
2022/06/19 01:30:33;;;;;;;9.35;7.00;;;12.80;99.90;;;;;;5053108;28;20048;-72
2022/06/19 01:33:03;;;;;;;9.77;6.90;;;12.90;99.90;;;;;;5055682;28;20044;-72
2022/06/19 01:35:35;;;;;;;11.57;7.05;;;12.80;99.90;;;;;;5064238;28;20056;-72
2022/06/19 01:38:09;;;;;;;10.75;6.85;;;12.80;99.90;;;;;;5067441;28;20052;-72
2022/06/19 01:40:40;;;;;;;10.70;7.07;;;12.70;99.90;;;;;;5056456;28;20169;-72
2022/06/19 01:43:08;;;;;;;11.85;6.45;;;12.60;99.90;;;;;;5052526;28;20071;-72
2022/06/19 01:45:36;;;;;;;8.45;7.05;;;12.60;99.90;;;;;;5053600;28;20044;-72
2022/06/19 01:48:04;;;;;;;8.73;7.10;;;12.60;99.90;;;;;;5063967;28;20041;-71
2022/06/19 01:50:33;;;;;;;8.73;6.75;;;12.60;99.90;;;;;;5058773;28;20060;-73
2022/06/19 01:53:08;;;;;;;10.70;6.88;;;12.60;99.90;;;;;;5052006;28;20048;-72
2022/06/19 01:55:38;;;;;;;8.30;7.00;;;12.60;99.90;;;;;;5053684;28;20045;-71
2022/06/19 01:58:06;;;;;;;9.10;7.20;;;12.50;99.90;;;;;;5079164;22;20064;-73
2022/06/19 02:00:36;;;;;;;10.88;7.65;;;12.50;99.90;;;;;;5089430;28;20048;-78
2022/06/19 02:03:09;;;;;;;10.88;7.63;;;12.50;99.90;;;;;;5114862;28;20070;-77
2022/06/19 02:05:38;;;;;;;10.48;7.70;;;12.40;99.90;;;;;;5120803;28;20073;-78
2022/06/19 02:08:06;;;;;;;8.38;7.15;;;12.40;99.90;;;;;;5098056;28;20058;-78
2022/06/19 02:10:40;;;;;;;10.80;7.97;;;12.30;99.90;;;;;;5087085;28;20509;-76
2022/06/19 02:13:10;;;;;;;8.73;7.63;;;12.30;99.90;;;;;;5095514;28;20078;-78
2022/06/19 02:15:38;;;;;;;9.85;6.88;;;12.20;99.90;;;;;;5077092;28;20130;-76
2022/06/19 02:18:09;;;;;;;9.07;7.15;;;12.20;99.90;;;;;;5095596;28;20097;-77
2022/06/19 02:20:36;;;;;;;8.25;7.43;;;12.20;99.90;;;;;;5096113;28;20054;-78
2022/06/19 02:23:05;;;;;;;9.55;6.95;;;12.20;99.90;;;;;;5102332;28;20074;-79
2022/06/19 02:25:35;;;;;;;9.82;6.47;;;12.20;99.90;;;;;;5079449;28;20445;-77
2022/06/19 02:28:06;;;;;;;8.95;7.22;;;12.20;99.90;;;;;;5067515;28;20044;-77
2022/06/19 02:30:33;;;;;;;7.75;6.90;;;12.30;99.90;;;;;;5096221;28;20086;-77
2022/06/19 02:33:02;;;;;;;10.70;7.10;;;12.20;99.90;;;;;;5095659;28;20406;-78
2022/06/19 02:35:29;;;;;;;9.35;7.05;;;12.20;99.90;;;;;;5098028;28;20044;-79
2022/06/19 02:37:57;;;;;;;8.93;7.45;;;12.20;99.90;;;;;;5081376;28;20052;-79
2022/06/19 02:40:35;;;;;;;8.43;7.43;;;12.10;99.90;;;;;;5082104;28;20076;-77
2022/06/19 02:43:09;;;;;;;7.72;6.55;;;12.10;99.90;;;;;;5079423;28;20541;-79
2022/06/19 02:45:39;;;;;;;10.27;7.28;;;12.10;99.90;;;;;;5061440;28;20499;-78
2022/06/19 02:48:07;;;;;;;7.97;7.18;;;12.10;99.90;;;;;;5079501;28;20071;-78
2022/06/19 02:50:36;;;;;;;8.40;6.82;;;12.10;99.90;;;;;;5081110;28;20048;-78
2022/06/19 02:53:03;;;;;;;8.82;7.07;;;12.10;99.90;;;;;;5080344;28;20044;-79
2022/06/19 02:55:30;;;;;;;9.85;8.00;;;12.10;99.90;;;;;;5061758;28;20041;-77
2022/06/19 02:57:58;;;;;;;9.48;7.53;;;12.10;99.90;;;;;;5098858;28;20036;-77
2022/06/19 03:00:28;;;;;;;11.50;8.30;;;12.10;99.90;;;;;;5080928;28;20052;-79
2022/06/19 03:02:59;;;;;;;9.20;8.18;;;12.00;99.90;;;;;;5099510;28;20413;-76
2022/06/19 03:05:29;;;;;;;11.82;7.25;;;12.00;99.90;;;;;;5118667;28;20047;-78
2022/06/19 03:07:56;;;;;;;8.65;6.82;;;12.00;99.90;;;;;;5104428;28;20070;-78
2022/06/19 03:10:24;;;;;;;9.57;7.18;;;12.10;99.90;;;;;;5079801;28;20145;-75
2022/06/19 03:12:52;;;;;;;10.18;7.07;;;12.10;99.90;;;;;;5098428;28;20454;-78
2022/06/19 03:15:20;;;;;;;10.60;7.40;;;12.00;99.90;;;;;;5079804;28;20048;-79
2022/06/19 03:17:48;;;;;;;11.25;7.07;;;12.00;99.90;;;;;;5099274;28;20048;-78
2022/06/19 03:20:19;;;;;;;10.48;6.95;;;12.00;99.90;;;;;;5080569;28;20064;-78
2022/06/19 03:22:47;;;;;;;11.18;6.90;;;12.00;99.90;;;;;;5099366;28;20092;-78
2022/06/19 03:25:14;;;;;;;8.23;7.00;;;12.00;99.90;;;;;;5080437;28;20075;-77
2022/06/19 03:27:41;;;;;;;9.75;6.38;;;12.10;99.90;;;;;;5097936;28;20109;-77
2022/06/19 03:30:19;;;;;;;10.00;6.55;;;12.10;99.90;;;;;;5079818;28;20055;-77
2022/06/19 03:32:48;;;;;;;8.50;6.68;;;12.10;99.90;;;;;;5098060;28;20510;-78
2022/06/19 03:35:16;;;;;;;7.38;6.32;;;12.20;99.90;;;;;;5098449;28;20403;-77
2022/06/19 03:37:44;;;;;;;8.80;6.63;;;12.20;99.90;;;;;;5099205;28;20066;-78
2022/06/19 03:40:12;;;;;;;11.82;6.95;;;12.30;99.90;;;;;;5080187;28;20040;-78
2022/06/19 03:42:39;;;;;;;8.98;6.90;;;12.30;99.90;;;;;;5098834;28;20032;-77
2022/06/19 03:45:08;;;;;;;10.43;6.60;;;12.40;99.90;;;;;;5097658;28;20093;-78
2022/06/19 03:47:35;;;;;;;9.40;6.82;;;12.40;99.90;;;;;;5096906;28;20044;-76
2022/06/19 03:50:05;;;;;;;10.00;6.03;;;12.50;99.90;;;;;;5079520;28;20090;-78
2022/06/19 03:52:32;;;;;;;11.38;5.82;;;12.70;99.90;;;;;;5079243;28;20044;-79
2022/06/19 03:55:00;;;;;;;9.52;5.85;;;12.80;99.90;;;;;;5097668;28;20052;-76
2022/06/19 03:57:27;;;;;;;8.70;4.68;;;13.60;99.90;;;;;;5096382;28;20036;-78
2022/06/19 03:59:54;;;;;;;7.47;4.97;;;14.70;99.90;;;;;;5096500;28;20066;-78
2022/06/19 04:02:22;;;;;;;5.68;4.13;;;15.70;99.90;;;;;;5095769;28;20119;-77
2022/06/19 04:04:49;;;;;;;5.72;4.50;;;16.80;99.90;;;;;;5117756;28;20039;-78
2022/06/19 04:07:18;;;;;;;8.90;4.15;;;17.70;99.90;;;;;;5121122;28;20061;-78
2022/06/19 04:09:45;;;;;;;5.20;3.70;;;18.40;1.00;;;;;;5104629;28;20096;-77
2022/06/19 04:12:13;;;;;;;5.38;3.80;;;18.90;72.10;;;;;;5102076;28;20040;-76
2022/06/19 04:14:41;;;;;;;4.78;3.50;;;19.20;1.00;;;;;;5078937;28;20043;-77
2022/06/19 04:17:09;;;;;;;7.40;3.70;;;19.40;1.00;;;;;;5106697;28;20062;-79
2022/06/19 04:19:36;;;;;;;10.65;4.38;;;19.50;1.00;;;;;;5079485;28;20055;-79
2022/06/19 04:22:05;;;;;;;5.65;3.28;;;20.20;99.90;;;;;;5098066;28;20381;-79
2022/06/19 04:24:33;;;;;;;5.75;3.70;;;20.80;99.90;;;;;;5079628;28;20032;-77
2022/06/19 04:27:05;;;;;;;5.00;3.42;;;21.30;99.90;;;;;;5096729;28;20036;-79
2022/06/19 04:29:32;;;;;;;7.38;3.85;;;21.60;81.00;;;;;;5092786;28;20475;-78
2022/06/19 04:32:00;;;;;;;4.80;3.30;;;21.90;17.00;;;;;;5095279;28;20043;-78
2022/06/19 04:34:27;;;;;;;4.32;3.47;;;21.90;1.00;;;;;;5099775;28;20066;-77
2022/06/19 04:36:55;;;;;;;6.57;3.83;;;22.10;1.00;;;;;;5083579;28;20061;-77
2022/06/19 04:39:22;;;;;;;5.45;3.70;;;22.50;1.00;;;;;;5105497;28;20482;-76
2022/06/19 04:41:51;;;;;;;5.32;3.50;;;22.70;1.00;;;;;;5100291;28;20047;-77
2022/06/19 04:44:20;;;;;;;10.80;3.60;;;22.90;1.00;;;;;;5097287;28;20482;-78
2022/06/19 04:46:47;;;;;;;5.15;3.47;;;23.30;1.00;;;;;;5080475;28;20495;-77
2022/06/19 04:49:17;;;;;;;7.40;3.80;;;23.70;1.00;;;;;;5099979;28;20449;-78
2022/06/19 04:51:46;;;;;;;5.20;4.00;;;23.90;1.00;;;;;;5098483;28;20044;-76
2022/06/19 04:54:13;;;;;;;7.28;3.60;;;24.00;1.00;;;;;;5096744;28;20881;-78
2022/06/19 04:56:41;;;;;;;6.38;3.90;;;24.50;1.00;;;;;;5078248;28;20097;-79
2022/06/19 04:59:10;;;;;;;4.28;3.60;;;25.40;1.00;;;;;;5081916;28;20060;-77
2022/06/19 05:01:39;;;;;;;7.53;4.43;;;26.10;1.00;;;;;;5083474;28;20359;-78
2022/06/19 05:04:09;;;;;;;4.40;3.47;;;26.30;1.00;;;;;;5079068;28;20043;-77
2022/06/19 05:06:37;;;;;;;5.28;3.83;;;26.80;1.00;;;;;;5099468;28;20479;-77
2022/06/19 05:09:04;;;;;;;4.85;3.78;;;27.20;1.00;;;;;;5106608;28;20478;-77
2022/06/19 05:11:33;;;;;;;6.05;3.78;;;27.60;1.00;;;;;;5080674;28;20044;-77
2022/06/19 05:14:00;;;;;;;8.13;3.50;;;27.80;1.00;;;;;;5096444;28;20028;-78
2022/06/19 05:16:30;;;;;;;6.40;3.55;;;28.10;1.00;;;;;;5098021;28;20079;-78
2022/06/19 05:18:58;;;;;;;8.48;3.67;;;28.30;1.00;;;;;;5082055;28;20055;-80
2022/06/19 05:21:26;;;;;;;6.57;3.20;;;27.90;1.00;;;;;;5082194;28;20077;-78
2022/06/19 05:23:55;;;;;;;8.52;3.70;;;28.20;1.00;;;;;;5096456;28;20051;-78
2022/06/19 05:26:26;;;;;;;5.68;3.97;;;28.40;1.00;;;;;;5080143;28;20105;-79
2022/06/19 05:28:55;;;;;;;5.07;3.10;;;28.80;1.00;;;;;;5083987;28;20043;-78
2022/06/19 05:31:23;;;;;;;6.57;5.57;;;28.70;1.00;;;;;;5097692;28;20048;-77
2022/06/19 05:33:52;;;;;;;8.60;4.75;;;28.60;1.00;;;;;;5098775;28;20554;-78
2022/06/19 05:36:20;;;;;;;5.30;4.05;;;28.70;1.00;;;;;;5095181;28;20548;-78
2022/06/19 05:38:47;;;;;;;6.85;4.50;;;28.80;1.00;;;;;;5094015;28;20495;-76
2022/06/19 05:41:15;;;;;;;8.52;4.80;;;28.80;1.00;;;;;;5094970;28;20040;-77
2022/06/19 05:43:42;;;;;;;6.03;3.97;;;28.80;1.00;;;;;;5093731;28;20131;-77
2022/06/19 05:46:15;;;;;;;5.88;3.92;;;28.90;1.00;;;;;;5094930;28;20090;-76
2022/06/19 05:48:42;;;;;;;5.47;4.40;;;29.00;1.00;;;;;;5076412;28;20517;-76
2022/06/19 05:51:13;;;;;;;6.47;3.60;;;29.10;1.00;;;;;;5095272;28;20040;-78
2022/06/19 05:53:42;;;;;;;6.03;3.53;;;29.00;1.00;;;;;;5094710;28;20044;-77
2022/06/19 05:56:10;;;;;;;5.78;3.33;;;28.70;1.00;;;;;;5099241;28;20104;-78
2022/06/19 05:58:38;;;;;;;5.93;3.75;;;28.30;1.00;;;;;;5096747;28;20556;-78
2022/06/19 06:01:06;;;;;;;5.22;3.67;;;28.10;1.00;;;;;;5101116;28;20048;-75
2022/06/19 06:03:33;;;;;;;6.72;3.90;;;27.90;1.00;;;;;;5096048;28;20368;-78
2022/06/19 06:06:02;;;;;;;6.65;4.32;;;27.30;1.00;;;;;;5096902;28;20032;-79
2022/06/19 06:08:31;;;;;;;6.85;4.30;;;26.90;1.00;;;;;;5111629;28;20042;-79
2022/06/19 06:10:59;;;;;;;12.93;4.90;;;26.60;1.00;;;;;;5112546;28;20039;-77
2022/06/19 06:13:29;;;;;;;5.47;3.70;;;26.30;1.00;;;;;;5122094;28;20036;-77
2022/06/19 06:15:57;;;;;;;7.63;4.15;;;25.90;1.00;;;;;;5117579;28;20062;-78
2022/06/19 06:18:24;;;;;;;5.03;3.95;;;25.90;1.00;;;;;;5099896;28;20105;-78
2022/06/19 06:20:56;;;;;;;7.47;4.20;;;25.80;1.00;;;;;;5077675;28;20051;-77
2022/06/19 06:23:24;;;;;;;9.73;6.43;;;25.70;1.00;;;;;;5076862;28;20060;-78
2022/06/19 06:26:00;;;;;;;6.13;4.18;;;25.70;1.00;;;;;;5111534;28;20093;-77
2022/06/19 06:28:28;;;;;;;11.82;4.72;;;25.70;1.00;;;;;;5107744;28;20115;-78
2022/06/19 06:30:56;;;;;;;9.18;5.97;;;25.60;1.00;;;;;;5095854;28;20513;-76
2022/06/19 06:33:23;;;;;;;9.70;4.50;;;25.60;1.00;;;;;;5115591;28;20047;-78
2022/06/19 06:35:51;;;;;;;7.38;4.15;;;25.50;1.00;;;;;;5080502;28;20040;-77
2022/06/19 06:38:18;;;;;;;6.47;4.63;;;25.70;1.00;;;;;;5094823;28;20048;-77
2022/06/19 06:40:47;;;;;;;8.63;4.70;;;25.80;1.00;;;;;;5073696;28;20107;-79
2022/06/19 06:43:16;;;;;;;6.85;4.00;;;26.00;1.00;;;;;;5076885;28;20395;-77
2022/06/19 06:45:43;;;;;;;9.57;3.97;;;26.10;1.00;;;;;;5077531;28;20044;-76
2022/06/19 06:48:11;;;;;;;9.13;4.53;;;26.20;1.00;;;;;;5095449;28;20051;-77
2022/06/19 06:50:39;;;;;;;6.03;3.50;;;26.20;1.00;;;;;;5096557;28;20495;-77
2022/06/19 06:53:08;;;;;;;5.70;3.90;;;26.20;1.00;;;;;;5080447;28;20399;-77
2022/06/19 06:55:38;;;;;;;7.03;4.15;;;26.40;1.00;;;;;;5109495;28;20048;-77
2022/06/19 06:58:06;;;;;;;7.32;4.53;;;26.40;1.00;;;;;;5111843;28;20039;-77
2022/06/19 07:00:35;;;;;;;8.55;4.68;;;26.40;1.00;;;;;;5095505;28;20036;-78
2022/06/19 07:03:03;;;;;;;6.63;4.82;;;26.40;1.00;;;;;;5091024;28;20058;-77
2022/06/19 07:05:30;;;;;;;7.45;4.78;;;26.40;1.00;;;;;;5090634;28;20376;-79
2022/06/19 07:07:59;;;;;;;6.40;4.47;;;25.70;1.00;;;;;;5098704;28;20032;-78
2022/06/19 07:10:27;;;;;;;7.78;4.57;;;25.40;1.00;;;;;;5096258;28;20760;-77
2022/06/19 07:12:55;;;;;;;4.72;3.80;;;25.30;1.00;;;;;;5096527;28;20456;-77
2022/06/19 07:15:23;;;;;;;5.35;4.00;;;24.80;1.00;;;;;;5078396;28;20072;-79
2022/06/19 07:17:52;;;;;;;6.22;4.07;;;24.80;1.00;;;;;;5096786;28;20403;-77
2022/06/19 07:20:20;;;;;;;6.47;4.20;;;25.00;1.00;;;;;;5096994;28;20086;-79
2022/06/19 07:22:47;;;;;;;5.05;4.28;;;25.20;1.00;;;;;;5097236;28;20043;-79
2022/06/19 07:25:17;;;;;;;6.00;3.92;;;25.10;1.00;;;;;;5080600;28;20448;-78
2022/06/19 07:27:45;;;;;;;6.18;3.75;;;25.30;1.00;;;;;;5098930;28;20058;-77
2022/06/19 07:30:16;;;;;;;5.15;3.90;;;25.60;1.00;;;;;;5102436;28;20039;-78
2022/06/19 07:32:43;;;;;;;8.73;5.05;;;25.90;1.00;;;;;;5106444;28;20040;-78
2022/06/19 07:35:12;;;;;;;6.25;3.53;;;26.00;1.00;;;;;;5102201;28;20063;-79
2022/06/19 07:37:40;;;;;;;6.47;4.75;;;26.30;1.00;;;;;;5081890;28;20097;-79
2022/06/19 07:40:08;;;;;;;5.70;4.07;;;26.40;1.00;;;;;;5079198;28;20044;-78
2022/06/19 07:42:35;;;;;;;6.35;3.97;;;26.60;1.00;;;;;;5098309;28;20040;-78
2022/06/19 07:45:02;;;;;;;5.40;3.83;;;26.60;1.00;;;;;;5097527;28;20493;-79
2022/06/19 07:50:17;;;;;;;11.98;4.95;;;26.40;1.00;;;;;;5089639;28;20050;-77
2022/06/19 07:52:46;;;;;;;7.40;4.88;;;26.70;1.00;;;;;;5087251;28;20044;-78
2022/06/19 07:55:16;;;;;;;7.75;4.32;;;26.70;1.00;;;;;;5095395;28;20540;-77
2022/06/19 07:57:43;;;;;;;6.35;4.82;;;26.90;1.00;;;;;;5123108;28;20036;-77
2022/06/19 08:00:16;;;;;;;8.18;4.93;;;26.90;1.00;;;;;;5109289;28;20059;-75
2022/06/19 08:02:46;;;;;;;5.30;2.80;;;27.00;1.00;;;;;;5118965;28;20048;-76
2022/06/19 08:05:13;;;;;;;8.23;2.90;;;26.60;1.00;;;;;;5117198;28;20548;-76
2022/06/19 08:07:42;;;;;;;7.45;3.72;;;26.40;1.00;;;;;;5117419;28;20039;-76
2022/06/19 08:10:14;;;;;;;7.45;3.67;;;26.60;1.00;;;;;;5107196;28;20494;-75
2022/06/19 08:12:42;;;;;;;10.15;3.65;;;26.80;1.00;;;;;;5078271;28;20117;-75
2022/06/19 08:15:10;;;;;;;4.85;3.00;;;26.90;1.00;;;;;;5096738;28;20036;-75
2022/06/19 08:17:37;;;;;;;5.85;2.83;;;26.60;1.00;;;;;;5085247;28;20045;-75
2022/06/19 08:20:06;;;;;;;4.40;3.30;;;26.60;1.00;;;;;;5075889;28;20037;-75
2022/06/19 08:22:33;;;;;;;6.05;3.08;;;26.90;1.00;;;;;;5074928;28;20047;-75
2022/06/19 08:25:02;;;;;;;4.25;2.70;;;27.10;1.00;;;;;;5079424;28;20119;-75
2022/06/19 08:27:29;;;;;;;6.65;2.60;;;27.20;1.00;;;;;;5095366;28;20048;-75
2022/06/19 08:29:56;;;;;;;6.78;2.42;;;27.20;1.00;;;;;;5095153;28;20044;-77
2022/06/19 08:32:24;;;;;;;4.28;2.33;;;27.30;1.00;;;;;;5095241;28;20064;-77
2022/06/19 08:34:51;;;;;;;4.25;1.73;;;27.40;1.00;;;;;;5095892;28;20093;-75
2022/06/19 08:37:18;;;;;;;4.57;2.17;;;27.50;1.00;;;;;;5095144;28;20513;-74
2022/06/19 08:39:46;;;;;;;2.92;1.60;;;27.40;1.00;;;;;;5095272;28;20044;-75
2022/06/19 08:42:42;;;;;;;4.53;1.67;;;27.20;1.00;;;;;;5078080;28;20086;-75
2022/06/19 08:45:34;;;;;;;4.82;1.85;;;26.90;1.00;;;;;;5058084;28;20041;-75
2022/06/19 08:48:26;;;;;;;6.32;1.85;;;26.80;1.00;;;;;;5070827;28;20040;-75
2022/06/19 08:51:00;;;;;;;5.35;1.80;;;26.80;1.00;;;;;;5076909;28;20441;-74
2022/06/19 08:53:47;;;;;;;4.22;1.85;;;27.00;1.00;;;;;;5076910;28;20055;-75
2022/06/19 08:56:22;;;;;;;6.82;2.47;;;27.30;1.00;;;;;;5077435;28;20051;-75
2022/06/19 08:59:01;;;;;;;4.95;2.40;;;27.30;1.00;;;;;;5094191;28;20075;-75
2022/06/19 09:01:39;;;;;;;3.03;1.20;;;27.30;1.00;;;;;;5094659;28;20054;-76
2022/06/19 09:07:07;;;;;;;3.42;1.90;;;27.30;1.00;;;;;;5095039;28;20115;-75
2022/06/19 09:09:47;;;;;;;;;;;27.20;1.00;;;;;;5087382;28;20040;-74
2022/06/19 09:12:42;;;;;;;5.30;1.92;;;27.40;1.00;;;;;;5078356;28;19946;-76
2022/06/19 09:15:15;;;;;;;2.42;1.50;;;27.60;1.00;;;;;;5077839;28;20040;-76
2022/06/19 09:17:54;;;;;;;6.10;3.08;;;27.60;1.00;;;;;;5095493;28;20040;-75
2022/06/19 09:20:41;;;;;;;4.90;2.67;;;27.80;1.00;;;;;;5094064;28;20044;-76
2022/06/19 09:23:38;;;;;;;3.53;2.20;;;28.00;1.00;;;;;;5075880;28;20123;-74
2022/06/19 09:26:10;;;;;;;3.13;1.90;;;28.10;1.00;;;;;;5072214;28;20040;-75
2022/06/19 09:28:45;;;;;;;4.00;1.73;;;27.70;1.00;;;;;;5072266;28;20479;-75
2022/06/19 09:31:19;;;;;;;5.40;2.05;;;27.60;1.00;;;;;;5054148;28;20098;-74
2022/06/19 09:33:54;;;;;;;3.65;1.60;;;27.70;1.00;;;;;;5073100;28;20044;-75
2022/06/19 09:36:24;;;;;;;;;;;27.70;1.00;;;;;;5074217;28;20055;-75
2022/06/19 09:38:59;;;;;;;3.80;1.90;;;27.80;1.00;;;;;;5073912;28;19924;-76
2022/06/19 09:41:32;;;;;;;2.67;1.90;;;27.80;1.00;;;;;;5074049;28;20075;-75
2022/06/19 09:44:07;;;;;;;3.83;2.22;;;27.80;1.00;;;;;;5054586;28;20045;-75
2022/06/19 09:46:42;;;;;;;3.08;1.80;;;28.00;1.00;;;;;;5056025;28;20048;-75
2022/06/19 09:49:15;;;;;;;2.72;2.05;;;28.00;1.00;;;;;;5073788;28;20040;-75
2022/06/19 09:51:50;;;;;;;5.22;2.65;;;28.10;1.00;;;;;;5056149;28;20434;-76
2022/06/19 09:54:24;;;;;;;3.33;1.88;;;28.20;1.00;;;;;;5055391;28;20820;-76
2022/06/19 09:56:57;;;;;;;4.22;2.90;;;28.30;1.00;;;;;;5073825;28;20049;-74
2022/06/19 09:59:31;;;;;;;3.67;2.08;;;28.30;1.00;;;;;;5052178;28;20049;-75
2022/06/19 10:02:09;;;;;;;4.45;1.92;;;28.20;1.00;;;;;;5075263;28;20098;-75
2022/06/19 10:04:40;;;;;;;4.25;1.90;;;28.40;1.00;;;;;;5093513;28;20040;-75
2022/06/19 10:07:16;;;;;;;2.88;1.73;;;28.30;1.00;;;;;;5092635;28;20146;-75
2022/06/19 10:09:50;;;;;;;3.70;2.00;;;28.20;1.00;;;;;;5088481;28;20383;-75
2022/06/19 10:12:24;;;;;;;5.43;1.90;;;28.20;1.00;;;;;;5074314;28;20041;-74
2022/06/19 10:14:53;;;;;;;4.10;2.10;;;28.20;1.00;;;;;;5073834;28;20115;-75
2022/06/19 10:17:26;;;;;;;13.07;7.97;;;28.20;1.00;;;;;;5073660;28;20427;-75
2022/06/19 10:20:03;;;;;;;8.38;5.47;;;27.70;1.00;;;;;;5073785;28;20055;-75
2022/06/19 10:22:43;;;;;;;3.63;2.42;;;27.60;1.00;;;;;;5073481;28;20045;-75
2022/06/19 10:25:38;;;;;;;3.75;2.60;;;27.80;1.00;;;;;;5073597;28;20071;-75
2022/06/19 10:28:23;;;;;;;3.75;2.00;;;28.00;1.00;;;;;;5068364;28;20048;-75
2022/06/19 10:31:00;;;;;;;4.07;1.83;;;28.10;1.00;;;;;;5072053;28;20412;-75
2022/06/19 10:33:43;;;;;;;2.70;2.00;;;28.20;1.00;;;;;;5072964;28;20044;-76
2022/06/19 10:36:19;;;;;;;4.53;2.20;;;28.30;1.00;;;;;;5076378;28;20414;-76
2022/06/19 10:39:01;;;;;;;4.95;2.58;;;28.20;1.00;;;;;;5075508;28;20052;-76
2022/06/19 10:44:28;;;;;;;9.32;6.65;;;28.30;1.00;;;;;;5081205;28;20045;-75
2022/06/19 10:47:08;;;;;;;5.78;3.92;;;28.40;1.00;;;;;;5083949;28;20052;-75
2022/06/19 10:49:47;;;;;;;5.15;3.35;;;28.40;1.00;;;;;;5075011;28;20095;-76
2022/06/19 10:52:21;;;;;;;5.05;3.35;;;28.40;1.00;;;;;;5071915;28;20052;-75
2022/06/19 10:55:04;;;;;;;3.70;2.58;;;28.20;1.00;;;;;;5077365;28;20029;-75
2022/06/19 10:57:45;;;;;;;3.95;2.38;;;28.20;1.00;;;;;;5079287;28;20144;-75
2022/06/19 11:00:14;;;;;;;4.65;2.85;;;27.90;1.00;;;;;;5102023;28;20049;-75
2022/06/19 11:05:39;;;;;;;4.75;2.45;;;27.90;1.00;;;;;;5104568;28;20051;-75
2022/06/19 11:08:06;;;;;;;5.40;2.60;;;28.20;1.00;;;;;;5107927;28;20087;-75
2022/06/19 11:10:41;;;;;;;3.00;2.15;;;28.30;1.00;;;;;;5109944;28;20048;-76
2022/06/19 11:13:09;;;;;;;3.60;2.57;;;28.20;1.00;;;;;;5079571;28;20087;-76
2022/06/19 11:15:40;;;;;;;5.22;2.63;;;28.50;1.00;;;;;;5096861;28;20281;-74
2022/06/19 11:18:15;;;;;;;7.32;3.28;;;28.70;1.00;;;;;;5078308;28;20048;-76
2022/06/19 11:20:57;;;;;;;8.13;3.10;;;28.70;1.00;;;;;;5078730;28;20048;-74
2022/06/19 11:23:29;;;;;;;4.50;2.90;;;28.60;1.00;;;;;;5095827;28;20126;-76
2022/06/19 11:26:05;;;;;;;3.97;2.90;;;28.60;1.00;;;;;;5095839;28;20063;-76
2022/06/19 11:28:44;;;;;;;4.82;2.53;;;28.60;1.00;;;;;;5094017;28;20036;-73
2022/06/19 11:31:17;;;;;;;4.03;2.60;;;28.50;1.00;;;;;;5095779;28;20044;-74
2022/06/19 11:33:46;;;;;;;6.15;2.80;;;28.50;1.00;;;;;;5094632;28;20028;-75
2022/06/19 11:36:32;;;;;;;4.75;2.80;;;28.60;1.00;;;;;;5078510;28;20044;-75
2022/06/19 11:39:00;;;;;;;5.65;2.65;;;28.70;1.00;;;;;;5095798;28;20062;-76
2022/06/19 11:41:32;;;;;;;3.92;2.65;;;28.70;1.00;;;;;;5077811;28;20440;-74
2022/06/19 11:44:08;;;;;;;6.05;3.47;;;28.50;1.00;;;;;;5093153;28;20071;-74
2022/06/19 11:46:46;;;;;;;3.80;2.50;;;28.50;1.00;;;;;;5095366;28;20089;-75
2022/06/19 11:49:29;;;;;;;6.97;2.97;;;28.40;1.00;;;;;;5095601;28;20109;-74
2022/06/19 11:52:00;;;;;;;4.60;2.80;;;28.40;1.00;;;;;;5095962;28;20148;-74
2022/06/19 11:54:32;;;;;;;3.90;2.47;;;28.60;1.00;;;;;;5095113;28;20067;-74
2022/06/19 11:57:00;;;;;;;3.05;2.30;;;28.50;1.00;;;;;;5096495;28;20068;-75
2022/06/19 11:59:39;;;;;;;5.65;2.60;;;28.50;1.00;;;;;;5095467;28;20139;-75
2022/06/19 12:02:23;;;;;;;6.00;2.90;;;28.60;1.00;;;;;;5090408;28;20047;-74
2022/06/19 12:04:54;;;;;;;3.70;2.72;;;28.60;1.00;;;;;;5116441;28;20084;-75
2022/06/19 12:07:27;;;;;;;6.57;2.60;;;28.70;1.00;;;;;;5114975;28;20062;-76
2022/06/19 12:09:58;;;;;;;3.53;2.58;;;28.60;1.00;;;;;;5091259;28;20048;-74
2022/06/19 12:12:27;;;;;;;7.78;3.28;;;28.60;1.00;;;;;;5077388;28;20078;-75
2022/06/19 12:14:58;;;;;;;7.78;2.60;;;28.60;1.00;;;;;;5095491;28;20040;-75
2022/06/19 12:17:27;;;;;;;4.75;3.17;;;28.50;1.00;;;;;;5096081;28;20040;-76
2022/06/19 12:19:59;;;;;;;4.32;2.55;;;28.60;1.00;;;;;;5095519;28;20457;-75
2022/06/19 12:22:37;;;;;;;5.03;2.90;;;28.60;1.00;;;;;;5095362;28;20047;-76
2022/06/19 12:25:12;;;;;;;4.85;2.45;;;28.50;1.00;;;;;;5077143;28;20101;-74
2022/06/19 12:27:45;;;;;;;6.28;2.65;;;28.60;1.00;;;;;;5077479;28;20078;-74
2022/06/19 12:30:20;;;;;;;4.93;2.83;;;28.60;1.00;;;;;;5076742;28;20051;-75
2022/06/19 12:32:50;;;;;;;3.92;2.90;;;28.70;1.00;;;;;;5077290;28;20151;-74
2022/06/19 12:35:25;;;;;;;3.38;2.40;;;28.80;1.00;;;;;;5077446;28;20434;-74
2022/06/19 12:37:54;;;;;;;4.85;3.38;;;28.70;1.00;;;;;;5095349;28;20040;-74
2022/06/19 12:40:26;;;;;;;5.25;2.55;;;28.80;1.00;;;;;;5077861;28;20102;-74
2022/06/19 12:43:01;;;;;;;4.75;2.35;;;28.80;1.00;;;;;;5094927;28;20101;-76
2022/06/19 12:45:44;;;;;;;4.53;2.95;;;28.80;1.00;;;;;;5095083;28;20043;-75
2022/06/19 12:48:29;;;;;;;2.65;2.22;;;28.80;1.00;;;;;;5077553;28;20040;-74
2022/06/19 12:51:02;;;;;;;4.93;2.20;;;28.60;1.00;;;;;;5078349;28;20052;-75
2022/06/19 12:53:56;;;;;;;3.97;2.58;;;28.60;1.00;;;;;;5077564;28;20063;-75
2022/06/19 12:56:34;;;;;;;5.78;3.22;;;28.60;1.00;;;;;;5078431;28;20495;-75
2022/06/19 12:59:26;;;;;;;3.53;2.47;;;28.70;1.00;;;;;;5077098;28;20058;-75
2022/06/19 13:02:00;;;;;;;4.70;2.50;;;28.90;1.00;;;;;;5106944;28;20483;-74
2022/06/19 13:04:40;;;;;;;3.15;2.60;;;28.70;1.00;;;;;;5116313;28;20044;-75
2022/06/19 13:07:19;;;;;;;3.47;2.75;;;28.80;1.00;;;;;;5115332;28;20087;-74
2022/06/19 13:10:00;;;;;;;5.15;2.60;;;28.90;1.00;;;;;;5091643;28;20445;-74
2022/06/19 13:12:46;;;;;;;3.55;2.25;;;29.00;1.00;;;;;;5095024;28;20051;-74
2022/06/19 13:15:44;;;;;;;4.15;2.67;;;29.00;1.00;;;;;;5094779;28;20471;-76
2022/06/19 13:18:19;;;;;;;3.97;2.42;;;28.90;1.00;;;;;;5076243;28;20488;-74
2022/06/19 13:20:54;;;;;;;4.07;2.50;;;28.90;1.00;;;;;;5094559;28;20047;-74
2022/06/19 13:23:25;;;;;;;5.47;2.50;;;28.70;1.00;;;;;;5094185;28;20048;-75
2022/06/19 13:27:10;;;;;;;7.63;2.20;;;28.70;1.00;;;;;;5094725;28;20040;-75
2022/06/19 13:29:10;;;;;;;2.80;2.08;;;28.80;1.00;;;;;;5076680;28;20497;-75